createdAt,value
2023-05-17T00:02:19.831Z,8.80
2023-05-17T00:04:46.864Z,8.70
2023-05-17T00:07:13.873Z,8.80
2023-05-17T00:09:40.856Z,8.70
2023-05-17T00:12:08.022Z,8.70
2023-05-17T00:14:35.791Z,8.70
2023-05-17T00:17:02.777Z,8.70
2023-05-17T00:19:29.770Z,8.70
2023-05-17T00:21:56.948Z,8.70
2023-05-17T00:24:23.820Z,8.60
2023-05-17T00:26:50.761Z,8.50
2023-05-17T00:29:17.649Z,8.50
2023-05-17T00:31:44.708Z,8.40
2023-05-17T00:34:11.611Z,8.40
2023-05-17T00:36:38.521Z,8.40
2023-05-17T00:39:05.468Z,8.40
2023-05-17T00:41:32.560Z,8.30
2023-05-17T00:43:59.744Z,8.30
2023-05-17T00:46:26.731Z,8.30
2023-05-17T00:48:54.128Z,8.30
2023-05-17T00:51:21.724Z,8.20
2023-05-17T00:53:48.793Z,8.20
2023-05-17T00:56:16.029Z,8.10
2023-05-17T00:58:43.220Z,8.20
2023-05-17T01:01:10.869Z,8.10
2023-05-17T01:03:38.233Z,8.00
2023-05-17T01:06:06.404Z,8.00
2023-05-17T01:08:33.457Z,8.00
2023-05-17T01:11:27.018Z,8.10
2023-05-17T01:14:29.365Z,8.00
2023-05-17T01:17:01.535Z,7.90
2023-05-17T01:19:50.593Z,8.00
2023-05-17T01:22:55.002Z,8.00
2023-05-17T01:25:50.067Z,7.90
2023-05-17T01:28:17.549Z,7.80
2023-05-17T01:30:46.385Z,7.80
2023-05-17T01:33:14.157Z,7.80
2023-05-17T01:35:41.386Z,7.80
2023-05-17T01:38:08.416Z,7.80
2023-05-17T01:40:39.763Z,7.70
2023-05-17T01:43:38.156Z,7.70
2023-05-17T01:46:11.254Z,7.80
2023-05-17T01:48:44.478Z,7.90
2023-05-17T01:51:19.763Z,7.90
2023-05-17T01:53:57.194Z,7.80
2023-05-17T01:56:33.329Z,7.80
2023-05-17T01:59:02.280Z,7.90
2023-05-17T02:01:30.651Z,8.00
2023-05-17T02:03:57.613Z,7.90
2023-05-17T02:06:24.669Z,7.90
2023-05-17T02:08:51.580Z,7.90
2023-05-17T02:11:18.563Z,7.90
2023-05-17T02:13:45.879Z,7.80
2023-05-17T02:16:12.836Z,7.70
2023-05-17T02:18:40.583Z,7.60
2023-05-17T02:21:07.723Z,7.60
2023-05-17T02:23:34.739Z,7.60
2023-05-17T02:26:01.608Z,7.60
2023-05-17T02:28:28.555Z,7.60
2023-05-17T02:30:56.590Z,7.60
2023-05-17T02:33:23.924Z,7.70
2023-05-17T02:35:51.219Z,7.70
2023-05-17T02:38:18.136Z,7.80
2023-05-17T02:40:45.170Z,7.80
2023-05-17T02:43:12.102Z,7.80
2023-05-17T02:45:38.999Z,7.80
2023-05-17T02:48:06.254Z,7.80
2023-05-17T02:50:33.215Z,7.70
2023-05-17T02:53:00.162Z,7.70
2023-05-17T02:55:27.225Z,7.70
2023-05-17T02:57:54.312Z,7.70
2023-05-17T03:00:21.532Z,7.60
2023-05-17T03:02:48.497Z,7.60
2023-05-17T03:05:15.754Z,7.60
2023-05-17T03:07:42.713Z,7.60
2023-05-17T03:10:09.986Z,7.60
2023-05-17T03:12:36.949Z,7.50
2023-05-17T03:15:04.335Z,7.40
2023-05-17T03:17:31.628Z,7.30
2023-05-17T03:19:58.693Z,7.20
2023-05-17T03:22:25.800Z,7.30
2023-05-17T03:24:53.691Z,7.30
2023-05-17T03:27:21.089Z,7.30
2023-05-17T03:29:48.794Z,7.30
2023-05-17T03:32:15.905Z,7.40
2023-05-17T03:34:42.953Z,7.40
2023-05-17T03:37:10.007Z,7.30
2023-05-17T03:39:36.954Z,7.30
2023-05-17T03:42:04.098Z,7.30
2023-05-17T03:44:31.027Z,7.30
2023-05-17T03:46:58.045Z,7.30
2023-05-17T03:49:24.965Z,7.30
2023-05-17T03:51:52.040Z,7.50
2023-05-17T03:54:19.084Z,7.40
2023-05-17T03:56:47.341Z,7.40
2023-05-17T03:59:14.436Z,7.40
2023-05-17T04:01:42.502Z,7.40
2023-05-17T04:04:10.218Z,7.50
2023-05-17T04:06:37.348Z,7.60
2023-05-17T04:09:04.704Z,7.60
2023-05-17T04:11:33.102Z,7.60
2023-05-17T04:14:00.158Z,7.70
2023-05-17T04:16:27.264Z,7.70
2023-05-17T04:18:54.321Z,7.70
2023-05-17T04:21:21.524Z,7.80
2023-05-17T04:23:48.538Z,7.80
2023-05-17T04:26:18.108Z,7.90
2023-05-17T04:28:45.402Z,7.90
2023-05-17T04:31:15.818Z,7.90
2023-05-17T04:33:42.942Z,8.00
2023-05-17T04:36:12.077Z,8.00
2023-05-17T04:38:39.082Z,8.00
2023-05-17T04:41:07.001Z,8.00
2023-05-17T04:43:34.110Z,8.00
2023-05-17T04:46:01.313Z,8.10
2023-05-17T04:48:32.466Z,8.10
2023-05-17T04:51:07.359Z,8.10
2023-05-17T04:53:34.832Z,8.20
2023-05-17T04:56:02.126Z,8.20
2023-05-17T04:58:29.152Z,8.10
2023-05-17T05:00:56.299Z,8.20
2023-05-17T05:03:23.653Z,8.20
2023-05-17T05:05:51.052Z,8.30
2023-05-17T05:08:18.116Z,8.30
2023-05-17T05:10:45.367Z,8.30
2023-05-17T05:13:12.523Z,8.30
2023-05-17T05:15:39.480Z,8.30
2023-05-17T05:18:06.510Z,8.40
2023-05-17T05:20:33.558Z,8.40
2023-05-17T05:23:01.105Z,8.40
2023-05-17T05:25:28.633Z,8.40
2023-05-17T05:27:55.784Z,8.50
2023-05-17T05:30:22.919Z,8.50
2023-05-17T05:32:50.808Z,8.60
2023-05-17T05:35:18.490Z,8.70
2023-05-17T05:37:45.797Z,8.70
2023-05-17T05:40:13.580Z,8.70
2023-05-17T05:42:40.699Z,8.70
2023-05-17T05:45:08.524Z,8.80
2023-05-17T05:47:35.647Z,8.80
2023-05-17T05:50:02.767Z,8.90
2023-05-17T05:52:29.789Z,8.90
2023-05-17T05:54:56.721Z,8.80
2023-05-17T05:57:23.829Z,8.90
2023-05-17T05:59:50.875Z,9.00
2023-05-17T06:02:17.911Z,9.10
2023-05-17T06:04:46.019Z,9.20
2023-05-17T06:07:14.253Z,9.20
2023-05-17T06:09:42.313Z,9.30
2023-05-17T06:12:09.676Z,9.40
2023-05-17T06:14:38.466Z,9.40
2023-05-17T06:17:05.658Z,9.50
2023-05-17T06:19:32.782Z,9.70
2023-05-17T06:21:59.946Z,9.80
2023-05-17T06:24:26.989Z,9.70
2023-05-17T06:26:53.969Z,9.60
2023-05-17T06:29:21.006Z,9.60
2023-05-17T06:31:48.471Z,9.70
2023-05-17T06:34:15.663Z,9.80
2023-05-17T06:36:42.724Z,10.10
2023-05-17T06:39:09.693Z,10.20
2023-05-17T06:41:36.974Z,10.20
2023-05-17T06:44:06.632Z,10.30
2023-05-17T06:46:33.691Z,10.50
2023-05-17T06:49:00.747Z,10.80
2023-05-17T06:51:28.025Z,11.00
2023-05-17T06:53:54.989Z,11.30
2023-05-17T06:56:22.344Z,11.40
2023-05-17T06:58:49.316Z,11.80
2023-05-17T07:01:17.208Z,11.70
2023-05-17T07:03:44.299Z,11.60
2023-05-17T07:06:11.417Z,11.50
2023-05-17T07:08:40.291Z,11.40
2023-05-17T07:11:07.281Z,11.20
2023-05-17T07:13:34.296Z,11.10
2023-05-17T07:16:01.371Z,11.50
2023-05-17T07:18:28.433Z,11.80
2023-05-17T07:20:55.569Z,11.70
2023-05-17T07:23:22.527Z,11.50
2023-05-17T07:25:49.591Z,11.60
2023-05-17T07:28:16.642Z,11.60
2023-05-17T07:30:43.706Z,11.50
2023-05-17T07:33:10.700Z,11.60
2023-05-17T07:35:37.798Z,11.60
2023-05-17T07:38:04.815Z,12.20
2023-05-17T07:40:31.849Z,13.00
2023-05-17T07:42:58.836Z,13.30
2023-05-17T07:45:26.108Z,12.70
2023-05-17T07:47:53.207Z,12.30
2023-05-17T07:50:20.197Z,12.20
2023-05-17T07:52:47.190Z,12.10
2023-05-17T07:55:16.615Z,12.10
2023-05-17T07:57:47.380Z,13.00
2023-05-17T08:00:15.178Z,13.20
2023-05-17T08:02:43.235Z,13.50
2023-05-17T08:05:10.686Z,13.80
2023-05-17T08:07:37.864Z,13.80
2023-05-17T08:10:07.287Z,13.70
2023-05-17T08:12:37.522Z,13.40
2023-05-17T08:15:04.912Z,13.30
2023-05-17T08:17:31.913Z,13.30
2023-05-17T08:19:59.024Z,13.80
2023-05-17T08:22:26.500Z,13.70
2023-05-17T08:24:53.610Z,13.70
2023-05-17T08:27:20.784Z,13.70
2023-05-17T08:29:47.702Z,13.90
2023-05-17T08:32:14.768Z,14.20
2023-05-17T08:34:41.787Z,13.90
2023-05-17T08:37:10.094Z,13.80
2023-05-17T08:39:37.268Z,13.50
2023-05-17T08:42:08.526Z,13.90
2023-05-17T08:44:36.646Z,14.40
2023-05-17T08:47:04.415Z,15.00
2023-05-17T08:49:38.110Z,15.80
2023-05-17T08:52:10.398Z,15.30
2023-05-17T08:54:37.805Z,14.80
2023-05-17T08:57:07.306Z,14.50
2023-05-17T08:59:35.972Z,14.00
2023-05-17T09:02:03.387Z,14.10
2023-05-17T09:04:33.523Z,14.60
2023-05-17T09:07:00.490Z,14.30
2023-05-17T09:09:28.052Z,14.40
2023-05-17T09:11:55.281Z,14.10
2023-05-17T09:14:22.447Z,13.80
2023-05-17T09:16:57.649Z,13.90
2023-05-17T09:19:24.758Z,14.60
2023-05-17T09:21:53.666Z,14.80
2023-05-17T09:24:31.613Z,14.90
2023-05-17T09:27:03.496Z,14.50
2023-05-17T09:29:33.535Z,14.20
2023-05-17T09:32:21.057Z,14.10
2023-05-17T09:34:50.069Z,14.90
2023-05-17T09:37:19.149Z,15.20
2023-05-17T09:39:48.373Z,14.60
2023-05-17T09:42:16.814Z,14.50
2023-05-17T09:44:53.232Z,14.70
2023-05-17T09:47:35.316Z,15.30
2023-05-17T09:50:06.421Z,15.40
2023-05-17T09:52:37.036Z,16.00
2023-05-17T09:55:04.334Z,16.20
2023-05-17T09:57:38.354Z,16.70
2023-05-17T10:00:12.581Z,16.20
2023-05-17T10:02:43.295Z,15.80
2023-05-17T10:05:12.643Z,15.70
2023-05-17T10:07:41.179Z,16.10
2023-05-17T10:10:09.261Z,16.50
2023-05-17T10:12:39.278Z,17.00
2023-05-17T10:15:08.353Z,17.30
2023-05-17T10:17:36.058Z,16.70
2023-05-17T10:20:06.806Z,16.10
2023-05-17T10:22:34.246Z,15.60
2023-05-17T10:25:01.414Z,15.30
2023-05-17T10:27:30.106Z,15.80
2023-05-17T10:29:58.415Z,16.30
2023-05-17T10:32:28.914Z,16.80
2023-05-17T10:35:10.587Z,17.40
2023-05-17T10:37:41.216Z,17.80
2023-05-17T10:40:13.782Z,17.20
2023-05-17T10:42:45.223Z,17.30
2023-05-17T10:45:13.554Z,16.30
2023-05-17T10:47:42.641Z,16.00
2023-05-17T10:50:15.111Z,16.50
2023-05-17T10:52:49.808Z,16.60
2023-05-17T10:55:25.127Z,16.60
2023-05-17T10:58:19.993Z,16.30
2023-05-17T11:00:49.149Z,16.00
2023-05-17T11:03:28.818Z,15.60
2023-05-17T11:06:22.025Z,15.40
2023-05-17T11:09:19.064Z,15.40
2023-05-17T11:12:06.599Z,15.20
2023-05-17T11:15:08.573Z,15.80
2023-05-17T11:17:46.550Z,16.20
2023-05-17T11:20:27.665Z,16.70
2023-05-17T11:23:06.856Z,17.10
2023-05-17T11:25:36.159Z,17.00
2023-05-17T11:28:21.038Z,16.60
2023-05-17T11:30:54.210Z,16.30
2023-05-17T11:36:24.288Z,16.60
2023-05-17T11:39:13.207Z,16.80
2023-05-17T11:41:48.716Z,17.20
2023-05-17T11:44:23.146Z,17.20
2023-05-17T11:46:50.902Z,17.00
2023-05-17T11:49:33.918Z,16.40
2023-05-17T11:52:02.973Z,15.70
2023-05-17T11:54:31.871Z,15.60
2023-05-17T11:57:00.359Z,16.00
2023-05-17T11:59:27.398Z,16.40
2023-05-17T12:01:54.966Z,16.30
2023-05-17T12:04:27.312Z,16.00
2023-05-17T12:06:58.369Z,15.70
2023-05-17T12:09:26.499Z,15.60
2023-05-17T12:11:53.645Z,15.60
2023-05-17T12:14:21.920Z,15.50
2023-05-17T12:16:56.228Z,15.50
2023-05-17T12:19:25.175Z,16.00
2023-05-17T12:21:52.381Z,15.90
2023-05-17T12:24:19.451Z,15.60
2023-05-17T12:26:47.847Z,16.00
2023-05-17T12:29:19.624Z,15.80
2023-05-17T12:31:50.215Z,15.50
2023-05-17T12:34:18.305Z,15.60
2023-05-17T12:36:45.690Z,16.00
2023-05-17T12:39:14.523Z,16.50
2023-05-17T12:41:43.118Z,16.70
2023-05-17T12:44:15.425Z,16.60
2023-05-17T12:46:43.837Z,16.10
2023-05-17T12:49:12.279Z,15.50
2023-05-17T12:51:47.045Z,15.40
2023-05-17T12:54:16.367Z,15.70
2023-05-17T12:56:44.688Z,16.00
2023-05-17T12:59:14.390Z,16.20
2023-05-17T13:01:55.856Z,16.40
2023-05-17T13:04:31.973Z,16.20
2023-05-17T13:07:01.686Z,16.10
2023-05-17T13:09:31.498Z,16.10
2023-05-17T13:12:01.091Z,16.10
2023-05-17T13:14:46.954Z,15.90
2023-05-17T13:17:50.248Z,15.70
2023-05-17T13:20:18.643Z,15.70
2023-05-17T13:22:49.621Z,15.80
2023-05-17T13:25:16.647Z,16.10
2023-05-17T13:27:49.350Z,16.00
2023-05-17T13:30:16.713Z,15.70
2023-05-17T13:32:44.781Z,15.60
2023-05-17T13:35:11.966Z,15.50
2023-05-17T13:37:39.034Z,15.70
2023-05-17T13:40:07.152Z,15.50
2023-05-17T13:42:34.521Z,15.20
2023-05-17T13:45:04.166Z,15.30
2023-05-17T13:47:32.285Z,15.10
2023-05-17T13:50:03.690Z,15.10
2023-05-17T13:52:31.376Z,15.10
2023-05-17T13:54:58.334Z,15.20
2023-05-17T13:57:25.532Z,15.20
2023-05-17T13:59:52.544Z,15.10
2023-05-17T14:02:19.540Z,15.20
2023-05-17T14:04:46.478Z,15.60
2023-05-17T14:07:13.506Z,15.50
2023-05-17T14:09:41.140Z,15.60
2023-05-17T14:12:08.175Z,15.30
2023-05-17T14:14:35.147Z,14.90
2023-05-17T14:17:02.195Z,14.70
2023-05-17T14:19:29.315Z,14.50
2023-05-17T14:21:56.460Z,14.40
2023-05-17T14:24:23.435Z,14.40
2023-05-17T14:26:50.600Z,14.60
2023-05-17T14:29:17.615Z,14.40
2023-05-17T14:31:44.634Z,14.20
2023-05-17T14:34:11.871Z,14.20
2023-05-17T14:36:39.482Z,14.20
2023-05-17T14:39:06.520Z,14.20
2023-05-17T14:41:33.660Z,14.20
2023-05-17T14:44:00.717Z,14.10
2023-05-17T14:46:27.753Z,14.00
2023-05-17T14:48:56.425Z,13.90
2023-05-17T14:51:23.834Z,13.50
2023-05-17T14:53:51.468Z,13.50
2023-05-17T14:56:18.840Z,13.60
2023-05-17T14:58:45.806Z,13.70
2023-05-17T15:01:13.282Z,13.70
2023-05-17T15:03:40.719Z,13.80
2023-05-17T15:06:11.056Z,13.90
2023-05-17T15:08:40.700Z,14.10
2023-05-17T15:11:07.718Z,13.80
2023-05-17T15:13:34.657Z,13.70
2023-05-17T15:16:03.167Z,13.80
2023-05-17T15:18:30.140Z,14.00
2023-05-17T15:20:57.137Z,13.90
2023-05-17T15:23:24.041Z,14.20
2023-05-17T15:25:51.011Z,14.20
2023-05-17T15:28:19.983Z,14.20
2023-05-17T15:30:47.675Z,14.10
2023-05-17T15:33:14.845Z,13.90
2023-05-17T15:35:41.915Z,13.80
2023-05-17T15:38:08.947Z,13.60
2023-05-17T15:40:35.931Z,13.70
2023-05-17T15:43:02.920Z,13.70
2023-05-17T15:45:30.131Z,13.80
2023-05-17T15:47:57.464Z,13.70
2023-05-17T15:50:24.580Z,13.50
2023-05-17T15:52:51.567Z,13.40
2023-05-17T15:55:18.687Z,13.50
2023-05-17T15:57:46.764Z,13.60
2023-05-17T16:00:14.185Z,13.70
2023-05-17T16:02:41.311Z,13.40
2023-05-17T16:05:08.781Z,13.50
2023-05-17T16:07:35.800Z,13.50
2023-05-17T16:10:02.898Z,13.40
2023-05-17T16:12:29.930Z,13.40
2023-05-17T16:14:56.940Z,13.40
2023-05-17T16:17:24.022Z,13.40
2023-05-17T16:19:51.167Z,13.30
2023-05-17T16:22:18.126Z,13.30
2023-05-17T16:24:45.083Z,13.40
2023-05-17T16:27:11.996Z,13.30
2023-05-17T16:29:40.287Z,13.30
2023-05-17T16:32:08.219Z,13.20
2023-05-17T16:34:35.823Z,13.30
2023-05-17T16:37:04.784Z,13.00
2023-05-17T16:39:32.543Z,13.10
2023-05-17T16:41:59.643Z,13.00
2023-05-17T16:44:26.595Z,12.80
2023-05-17T16:46:53.569Z,12.70
2023-05-17T16:49:20.781Z,12.70
2023-05-17T16:51:49.944Z,12.50
2023-05-17T16:54:17.090Z,12.50
2023-05-17T16:56:44.052Z,12.60
2023-05-17T16:59:11.425Z,12.50
2023-05-17T17:01:38.484Z,12.30
2023-05-17T17:04:06.092Z,12.40
2023-05-17T17:06:34.006Z,12.30
2023-05-17T17:09:01.724Z,12.10
2023-05-17T17:11:28.621Z,12.10
2023-05-17T17:13:55.553Z,12.00
2023-05-17T17:16:22.758Z,12.00
2023-05-17T17:18:50.018Z,12.20
2023-05-17T17:21:17.490Z,12.20
2023-05-17T17:23:44.579Z,12.00
2023-05-17T17:26:11.644Z,12.00
2023-05-17T17:28:38.897Z,12.10
2023-05-17T17:31:06.714Z,12.00
2023-05-17T17:33:34.135Z,12.00
2023-05-17T17:36:01.280Z,12.00
2023-05-17T17:38:28.324Z,12.00
2023-05-17T17:40:55.460Z,11.90
2023-05-17T17:43:22.493Z,11.80
2023-05-17T17:45:49.456Z,11.80
2023-05-17T17:48:16.466Z,11.70
2023-05-17T17:50:43.514Z,11.60
2023-05-17T17:53:10.715Z,11.60
2023-05-17T17:55:37.654Z,11.60
2023-05-17T17:58:04.998Z,11.60
2023-05-17T18:00:32.312Z,11.50
2023-05-17T18:02:59.569Z,11.60
2023-05-17T18:05:26.650Z,11.50
2023-05-17T18:07:53.577Z,11.50
2023-05-17T18:10:20.821Z,11.40
2023-05-17T18:12:49.047Z,11.50
2023-05-17T18:15:18.026Z,11.50
2023-05-17T18:17:45.093Z,11.50
2023-05-17T18:20:12.169Z,11.50
2023-05-17T18:22:39.142Z,11.40
2023-05-17T18:25:06.537Z,11.50
2023-05-17T18:27:33.613Z,11.60
2023-05-17T18:30:00.736Z,11.50
2023-05-17T18:32:27.825Z,11.30
2023-05-17T18:34:55.120Z,11.20
2023-05-17T18:37:22.172Z,11.10
2023-05-17T18:39:49.275Z,11.10
2023-05-17T18:42:16.354Z,11.20
2023-05-17T18:44:43.680Z,11.30
2023-05-17T18:47:11.989Z,11.30
2023-05-17T18:49:42.422Z,11.20
2023-05-17T18:52:09.782Z,11.40
2023-05-17T18:54:37.010Z,11.30
2023-05-17T18:57:05.195Z,11.10
2023-05-17T18:59:32.962Z,11.00
2023-05-17T19:02:00.588Z,11.00
2023-05-17T19:04:28.596Z,10.80
2023-05-17T19:06:56.858Z,10.80
2023-05-17T19:09:24.055Z,10.70
2023-05-17T19:11:53.958Z,10.90
2023-05-17T19:14:21.189Z,10.80
2023-05-17T19:16:50.297Z,10.70
2023-05-17T19:19:17.645Z,10.70
2023-05-17T19:21:44.606Z,10.60
2023-05-17T19:24:11.615Z,10.60
2023-05-17T19:26:39.309Z,10.60
2023-05-17T19:29:06.411Z,10.50
2023-05-17T19:31:33.470Z,10.60
2023-05-17T19:34:01.732Z,10.70
2023-05-17T19:36:28.666Z,10.60
2023-05-17T19:38:55.576Z,10.50
2023-05-17T19:41:22.997Z,10.50
2023-05-17T19:43:49.890Z,10.40
2023-05-17T19:46:16.935Z,10.30
2023-05-17T19:48:43.877Z,10.20
2023-05-17T19:51:10.944Z,10.40
2023-05-17T19:53:51.721Z,10.30
2023-05-17T19:56:19.964Z,10.30
2023-05-17T19:58:46.862Z,10.20
2023-05-17T20:01:13.934Z,10.10
2023-05-17T20:03:41.081Z,10.20
2023-05-17T20:06:11.146Z,10.20
2023-05-17T20:08:38.133Z,10.10
2023-05-17T20:11:06.606Z,10.20
2023-05-17T20:13:34.943Z,10.20
2023-05-17T20:16:01.915Z,10.10
2023-05-17T20:18:30.158Z,10.10
2023-05-17T20:20:57.292Z,10.00
2023-05-17T20:23:24.430Z,10.00
2023-05-17T20:25:51.395Z,10.00
2023-05-17T20:28:18.364Z,10.00
2023-05-17T20:30:45.863Z,10.10
2023-05-17T20:33:12.877Z,10.20
2023-05-17T20:35:39.994Z,10.20
2023-05-17T20:38:06.961Z,10.10
2023-05-17T20:40:35.297Z,9.90
2023-05-17T20:43:03.578Z,10.00
2023-05-17T20:45:30.645Z,10.00
2023-05-17T20:47:57.841Z,10.00
2023-05-17T20:50:24.839Z,9.90
2023-05-17T20:52:51.771Z,9.90
2023-05-17T20:55:18.752Z,10.00
2023-05-17T20:57:46.338Z,9.90
2023-05-17T21:00:17.165Z,9.90
2023-05-17T21:02:44.588Z,9.80
2023-05-17T21:05:11.707Z,9.80
2023-05-17T21:07:39.302Z,9.90
2023-05-17T21:10:08.001Z,9.80
2023-05-17T21:12:35.531Z,9.70
2023-05-17T21:15:15.717Z,9.70
2023-05-17T21:17:50.439Z,9.70
2023-05-17T21:20:17.735Z,9.60
2023-05-17T21:22:45.915Z,9.60
2023-05-17T21:25:12.802Z,9.40
2023-05-17T21:27:39.766Z,9.50
2023-05-17T21:30:07.706Z,9.60
2023-05-17T21:32:34.865Z,9.60
2023-05-17T21:35:01.856Z,9.50
2023-05-17T21:37:28.773Z,9.50
2023-05-17T21:39:55.779Z,9.50
2023-05-17T21:42:22.699Z,9.50
2023-05-17T21:44:49.657Z,9.50
2023-05-17T21:47:16.597Z,9.40
2023-05-17T21:49:43.501Z,9.30
2023-05-17T21:52:10.466Z,9.20
2023-05-17T21:54:37.409Z,9.20
2023-05-17T21:57:04.440Z,9.40
2023-05-17T21:59:31.399Z,9.60
2023-05-17T22:01:58.463Z,9.50
2023-05-17T22:04:25.432Z,9.30
2023-05-17T22:06:52.358Z,9.30
2023-05-17T22:09:19.557Z,9.30
2023-05-17T22:11:46.680Z,9.30
2023-05-17T22:14:13.959Z,9.30
2023-05-17T22:16:40.929Z,9.40
2023-05-17T22:19:07.967Z,9.30
2023-05-17T22:21:34.960Z,9.20
2023-05-17T22:24:02.040Z,9.10
2023-05-17T22:26:28.944Z,9.00
2023-05-17T22:28:56.082Z,8.80
2023-05-17T22:31:23.150Z,8.80
2023-05-17T22:33:52.099Z,8.80
2023-05-17T22:36:19.542Z,8.60
2023-05-17T22:38:46.801Z,8.50
2023-05-17T22:41:13.940Z,8.50
2023-05-17T22:43:41.703Z,8.60
2023-05-17T22:46:08.674Z,8.40
2023-05-17T22:48:37.643Z,8.40
2023-05-17T22:51:04.807Z,8.30
2023-05-17T22:53:31.782Z,8.40
2023-05-17T22:55:59.012Z,8.20
2023-05-17T22:58:26.021Z,8.10
2023-05-17T23:00:53.329Z,8.10
2023-05-17T23:03:21.073Z,8.00
2023-05-17T23:05:48.577Z,7.80
2023-05-17T23:08:15.680Z,7.70
2023-05-17T23:10:46.062Z,7.80
2023-05-17T23:13:13.907Z,7.60
2023-05-17T23:15:46.177Z,7.60
2023-05-17T23:18:13.121Z,7.50
2023-05-17T23:20:40.303Z,7.50
2023-05-17T23:23:08.398Z,7.50
2023-05-17T23:25:35.451Z,7.40
2023-05-17T23:28:03.360Z,7.40
2023-05-17T23:30:30.688Z,7.50
2023-05-17T23:32:57.796Z,7.50
2023-05-17T23:35:24.848Z,7.40
2023-05-17T23:37:51.786Z,7.40
2023-05-17T23:40:18.841Z,7.40
2023-05-17T23:42:46.096Z,7.50
2023-05-17T23:45:13.208Z,7.50
2023-05-17T23:47:41.151Z,7.50
2023-05-17T23:50:12.186Z,7.60
2023-05-17T23:52:40.077Z,7.50
2023-05-17T23:55:07.769Z,7.40
2023-05-17T23:57:35.395Z,7.60
